Alert, Canada
Current Conditions -  °F | °C
As of 12:00 PM on Thursday 23 Oct 2014 (Local Time) from CYLT Reporting Station
Light Snow Light Snow  
Wind Chill: -23°   Ceiling: 3300
Heat Index: -16°   Visibility: 15mi
Dew Point: -21°   Wind: 8mph
Humidity: 66%   Direction: 240°WSW
Pressure: 29.87"   Gusts: NA
Location:  82.47°N, 62.5°W
Report Text: CYLT 231600Z 24007KT 15SM -SN OVC033 M16/M21 A2987 RMK SC8SLP120
Loading
Personal Weather Stations






























Interactive Weather Map
Tropical Storm Tracking
New forecast layout! Learn more

10-Day Weather Forecast

Advertisements
Track Severe Weather on mobile